createdAt,value
2022-12-20T00:00:02.932Z,18.30
2022-12-20T00:00:13.723Z,18.10
2022-12-20T00:00:24.795Z,18.30
2022-12-20T00:00:35.789Z,18.10
2022-12-20T00:00:46.566Z,19.00
2022-12-20T00:00:57.631Z,19.10
2022-12-20T00:01:08.627Z,19.00
2022-12-20T00:01:19.484Z,19.00
2022-12-20T00:01:30.066Z,19.00
2022-12-20T00:01:41.181Z,20.10
2022-12-20T00:01:52.100Z,19.30
2022-12-20T00:02:02.888Z,19.80
2022-12-20T00:02:13.444Z,20.00
2022-12-20T00:02:24.415Z,20.90
2022-12-20T00:02:35.258Z,20.80
2022-12-20T00:02:45.895Z,21.00
2022-12-20T00:02:56.764Z,21.20
2022-12-20T00:03:07.369Z,19.80
2022-12-20T00:03:18.447Z,20.00
2022-12-20T00:03:29.287Z,20.00
2022-12-20T00:03:40.352Z,20.40
2022-12-20T00:03:51.357Z,20.80
2022-12-20T00:04:02.145Z,20.90
2022-12-20T00:04:13.236Z,21.60
2022-12-20T00:04:24.229Z,20.90
2022-12-20T00:04:35.022Z,20.10
2022-12-20T00:04:46.078Z,19.50
2022-12-20T00:04:57.070Z,20.00
2022-12-20T00:05:07.853Z,19.40
2022-12-20T00:05:18.932Z,19.80
2022-12-20T00:05:29.921Z,20.50
2022-12-20T00:05:40.731Z,20.20
2022-12-20T00:05:51.782Z,20.50
2022-12-20T00:06:02.782Z,20.50
2022-12-20T00:06:13.577Z,20.10
2022-12-20T00:06:24.645Z,19.80
2022-12-20T00:06:35.656Z,17.50
2022-12-20T00:06:46.420Z,17.60
2022-12-20T00:06:57.500Z,18.80
2022-12-20T00:07:08.492Z,19.30
2022-12-20T00:07:19.252Z,20.20
2022-12-20T00:07:30.352Z,19.90
2022-12-20T00:07:41.299Z,20.10
2022-12-20T00:07:52.086Z,18.80
2022-12-20T00:08:03.204Z,18.40
2022-12-20T00:08:14.215Z,19.10
2022-12-20T00:08:24.977Z,19.00
2022-12-20T00:08:36.137Z,20.20
2022-12-20T00:08:47.097Z,20.80
2022-12-20T00:08:57.918Z,21.30
2022-12-20T00:09:08.976Z,20.00
2022-12-20T00:09:19.967Z,20.90
2022-12-20T00:09:30.780Z,19.50
2022-12-20T00:09:41.631Z,19.90
2022-12-20T00:09:52.612Z,19.70
2022-12-20T00:10:03.424Z,20.80
2022-12-20T00:10:14.477Z,20.50
2022-12-20T00:10:25.469Z,19.50
2022-12-20T00:10:36.249Z,18.90
2022-12-20T00:10:47.343Z,21.20
2022-12-20T00:10:58.323Z,21.00
2022-12-20T00:11:09.103Z,20.50
2022-12-20T00:11:20.176Z,19.40
2022-12-20T00:11:31.176Z,20.30
2022-12-20T00:11:41.960Z,21.40
2022-12-20T00:11:53.114Z,22.60
2022-12-20T00:12:04.050Z,21.40
2022-12-20T00:12:14.833Z,19.80
2022-12-20T00:12:25.903Z,20.00
2022-12-20T00:12:36.912Z,21.00
2022-12-20T00:12:47.737Z,21.10
2022-12-20T00:12:58.753Z,20.90
2022-12-20T00:13:09.787Z,20.70
2022-12-20T00:13:20.677Z,20.60
2022-12-20T00:13:31.746Z,20.50
2022-12-20T00:13:42.753Z,20.40
2022-12-20T00:13:53.518Z,20.40
2022-12-20T00:14:04.630Z,18.90
2022-12-20T00:14:15.587Z,18.30
2022-12-20T00:14:26.397Z,18.80
2022-12-20T00:14:37.456Z,18.00
2022-12-20T00:14:48.522Z,19.20
2022-12-20T00:14:59.280Z,20.30
2022-12-20T00:15:10.347Z,21.40
2022-12-20T00:15:21.375Z,22.30
2022-12-20T00:15:32.139Z,21.20
2022-12-20T00:15:43.216Z,19.70
2022-12-20T00:15:54.196Z,20.00
2022-12-20T00:16:04.981Z,20.70
2022-12-20T00:16:16.066Z,22.30
2022-12-20T00:16:27.073Z,21.10
2022-12-20T00:16:37.839Z,21.30
2022-12-20T00:16:48.925Z,19.90
2022-12-20T00:16:59.918Z,19.10
2022-12-20T00:17:10.689Z,19.30
2022-12-20T00:17:21.794Z,19.10
2022-12-20T00:17:32.795Z,19.00
2022-12-20T00:17:43.624Z,19.30
2022-12-20T00:17:54.239Z,20.10
2022-12-20T00:18:04.853Z,19.70
2022-12-20T00:18:15.756Z,20.40
2022-12-20T00:18:26.305Z,20.70
2022-12-20T00:18:37.307Z,20.90
2022-12-20T00:18:48.078Z,19.60
2022-12-20T00:18:59.202Z,19.60
2022-12-20T00:19:10.202Z,19.00
2022-12-20T00:19:20.971Z,19.30
2022-12-20T00:19:32.045Z,19.30
2022-12-20T00:19:43.034Z,20.60
2022-12-20T00:19:53.826Z,19.80
2022-12-20T00:20:04.938Z,19.00
2022-12-20T00:20:15.898Z,18.20
2022-12-20T00:20:26.675Z,18.10
2022-12-20T00:20:37.738Z,18.20
2022-12-20T00:20:48.747Z,18.70
2022-12-20T00:20:59.528Z,18.30
2022-12-20T00:21:10.594Z,18.00
2022-12-20T00:21:21.583Z,17.60
2022-12-20T00:21:32.403Z,17.60
2022-12-20T00:21:43.467Z,17.50
2022-12-20T00:21:54.485Z,17.80
2022-12-20T00:22:05.267Z,19.00
2022-12-20T00:22:16.310Z,20.50
2022-12-20T00:22:27.313Z,20.90
2022-12-20T00:22:38.097Z,19.60
2022-12-20T00:22:49.195Z,19.10
2022-12-20T00:23:00.186Z,18.30
2022-12-20T00:23:10.987Z,18.30
2022-12-20T00:23:22.079Z,17.80
2022-12-20T00:23:33.094Z,18.90
2022-12-20T00:23:43.893Z,18.50
2022-12-20T00:23:54.436Z,18.50
2022-12-20T00:24:05.420Z,17.90
2022-12-20T00:24:19.437Z,18.70
2022-12-20T00:24:28.298Z,18.80
2022-12-20T00:24:38.202Z,18.60
2022-12-20T00:24:48.982Z,18.30
2022-12-20T00:25:00.102Z,19.70
2022-12-20T00:25:11.052Z,19.80
2022-12-20T00:25:21.857Z,19.90
2022-12-20T00:25:32.958Z,18.70
2022-12-20T00:25:43.936Z,19.00
2022-12-20T00:25:54.725Z,18.60
2022-12-20T00:26:05.795Z,18.10
2022-12-20T00:26:16.810Z,18.30
2022-12-20T00:26:27.596Z,19.10
2022-12-20T00:26:38.646Z,19.00
2022-12-20T00:26:49.631Z,18.30
2022-12-20T00:27:00.430Z,18.20
2022-12-20T00:27:11.496Z,18.40
2022-12-20T00:27:22.492Z,18.60
2022-12-20T00:27:33.266Z,17.90
2022-12-20T00:27:44.381Z,18.20
2022-12-20T00:27:55.344Z,17.50
2022-12-20T00:28:06.151Z,17.80
2022-12-20T00:28:17.217Z,17.00
2022-12-20T00:28:28.231Z,17.70
2022-12-20T00:28:39.024Z,17.90
2022-12-20T00:28:50.103Z,18.20
2022-12-20T00:29:01.134Z,18.70
2022-12-20T00:29:11.881Z,19.20
2022-12-20T00:29:22.970Z,20.00
2022-12-20T00:29:33.949Z,18.70
2022-12-20T00:29:44.743Z,17.90
2022-12-20T00:29:55.805Z,17.70
2022-12-20T00:30:06.793Z,18.50
2022-12-20T00:30:17.607Z,18.80
2022-12-20T00:30:28.653Z,19.30
2022-12-20T00:30:39.658Z,18.30
2022-12-20T00:30:50.454Z,19.20
2022-12-20T00:31:01.602Z,19.30
2022-12-20T00:31:12.636Z,19.40
2022-12-20T00:31:23.473Z,18.10
2022-12-20T00:31:34.035Z,18.20
2022-12-20T00:31:45.043Z,18.10
2022-12-20T00:31:55.876Z,18.50
2022-12-20T00:32:06.464Z,19.30
2022-12-20T00:32:16.966Z,18.60
2022-12-20T00:32:27.739Z,18.60
2022-12-20T00:32:38.816Z,18.20
2022-12-20T00:32:49.794Z,18.30
2022-12-20T00:33:00.621Z,18.30
2022-12-20T00:33:11.156Z,18.50
2022-12-20T00:33:22.131Z,18.60
2022-12-20T00:33:32.931Z,18.30
2022-12-20T00:33:43.457Z,18.20
2022-12-20T00:33:54.449Z,17.50
2022-12-20T00:34:05.237Z,18.10
2022-12-20T00:34:16.336Z,17.40
2022-12-20T00:34:27.334Z,18.60
2022-12-20T00:34:38.117Z,18.60
2022-12-20T00:34:49.209Z,18.10
2022-12-20T00:35:00.170Z,18.90
2022-12-20T00:35:10.974Z,19.50
2022-12-20T00:35:22.060Z,20.10
2022-12-20T00:35:33.056Z,20.50
2022-12-20T00:35:43.831Z,20.10
2022-12-20T00:35:54.897Z,20.60
2022-12-20T00:36:05.896Z,20.10
2022-12-20T00:36:16.658Z,20.90
2022-12-20T00:36:27.736Z,20.80
2022-12-20T00:36:38.726Z,21.10
2022-12-20T00:36:49.523Z,19.20
2022-12-20T00:37:00.580Z,19.50
2022-12-20T00:37:11.595Z,20.70
2022-12-20T00:37:22.361Z,20.60
2022-12-20T00:37:33.481Z,20.70
2022-12-20T00:37:44.447Z,19.70
2022-12-20T00:37:55.244Z,19.30
2022-12-20T00:38:06.318Z,18.70
2022-12-20T00:38:17.300Z,19.70
2022-12-20T00:38:28.093Z,20.10
2022-12-20T00:38:39.187Z,19.40
2022-12-20T00:38:50.202Z,18.40
2022-12-20T00:39:00.992Z,20.10
2022-12-20T00:39:12.090Z,19.30
2022-12-20T00:39:23.051Z,19.80
2022-12-20T00:39:33.846Z,19.30
2022-12-20T00:39:44.919Z,20.60
2022-12-20T00:39:55.911Z,18.90
2022-12-20T00:40:06.717Z,19.60
2022-12-20T00:40:17.804Z,19.10
2022-12-20T00:40:28.787Z,18.90
2022-12-20T00:40:39.563Z,19.40
2022-12-20T00:40:50.631Z,19.30
2022-12-20T00:41:01.694Z,18.20
2022-12-20T00:41:12.443Z,18.00
2022-12-20T00:41:23.516Z,17.30
2022-12-20T00:41:34.557Z,18.30
2022-12-20T00:41:45.315Z,19.20
2022-12-20T00:41:56.384Z,18.90
2022-12-20T00:42:07.383Z,19.60
2022-12-20T00:42:18.155Z,18.80
2022-12-20T00:42:29.236Z,18.60
2022-12-20T00:42:40.214Z,18.40
2022-12-20T00:42:51.002Z,18.70
2022-12-20T00:43:02.102Z,18.70
2022-12-20T00:43:13.085Z,17.70
2022-12-20T00:43:23.868Z,17.20
2022-12-20T00:43:34.972Z,18.30
2022-12-20T00:43:45.981Z,19.50
2022-12-20T00:43:56.767Z,18.90
2022-12-20T00:44:07.849Z,17.80
2022-12-20T00:44:18.836Z,18.10
2022-12-20T00:44:29.622Z,18.30
2022-12-20T00:44:40.719Z,17.70
2022-12-20T00:44:51.683Z,16.80
2022-12-20T00:45:02.495Z,15.80
2022-12-20T00:45:13.019Z,15.90
2022-12-20T00:45:24.008Z,16.20
2022-12-20T00:45:34.795Z,16.80
2022-12-20T00:45:45.934Z,16.40
2022-12-20T00:45:56.908Z,16.60
2022-12-20T00:46:07.672Z,16.70
2022-12-20T00:46:18.850Z,17.90
2022-12-20T00:46:29.374Z,18.90
2022-12-20T00:46:40.251Z,17.70
2022-12-20T00:46:50.869Z,16.80
2022-12-20T00:47:01.456Z,16.90
2022-12-20T00:47:12.302Z,18.00
2022-12-20T00:47:22.937Z,18.40
2022-12-20T00:47:33.403Z,19.10
2022-12-20T00:47:44.178Z,19.50
2022-12-20T00:47:55.239Z,18.90
2022-12-20T00:48:06.231Z,18.20
2022-12-20T00:48:17.001Z,17.20
2022-12-20T00:48:28.086Z,18.20
2022-12-20T00:48:39.070Z,17.60
2022-12-20T00:48:49.898Z,17.50
2022-12-20T00:49:00.438Z,17.80
2022-12-20T00:49:11.413Z,17.10
2022-12-20T00:49:22.222Z,17.10
2022-12-20T00:49:33.308Z,16.00
2022-12-20T00:49:44.295Z,17.10
2022-12-20T00:49:55.093Z,17.40
2022-12-20T00:50:06.201Z,17.30
2022-12-20T00:50:17.154Z,18.00
2022-12-20T00:50:27.963Z,17.70
2022-12-20T00:50:39.020Z,17.60
2022-12-20T00:50:50.016Z,16.90
2022-12-20T00:51:00.831Z,17.00
2022-12-20T00:51:11.355Z,16.60
2022-12-20T00:51:22.344Z,16.00
2022-12-20T00:51:33.142Z,15.70
2022-12-20T00:51:44.193Z,14.70
2022-12-20T00:51:55.200Z,15.50
2022-12-20T00:52:06.006Z,16.10
2022-12-20T00:52:17.078Z,16.30
2022-12-20T00:52:28.052Z,15.20
2022-12-20T00:52:38.898Z,14.80
2022-12-20T00:52:49.392Z,15.30
2022-12-20T00:53:00.411Z,15.70
2022-12-20T00:53:11.193Z,16.30
2022-12-20T00:53:26.393Z,15.10
2022-12-20T00:53:32.846Z,16.30
2022-12-20T00:53:43.676Z,14.50
2022-12-20T00:53:54.227Z,14.80
2022-12-20T00:54:05.217Z,13.90
2022-12-20T00:54:15.993Z,14.60
2022-12-20T00:54:27.067Z,13.70
2022-12-20T00:54:38.057Z,13.60
2022-12-20T00:54:48.855Z,12.50
2022-12-20T00:54:59.939Z,12.70
2022-12-20T00:55:10.904Z,13.20
2022-12-20T00:55:21.699Z,13.70
2022-12-20T00:55:32.807Z,13.90
2022-12-20T00:55:43.761Z,14.10
2022-12-20T00:55:54.546Z,13.10
2022-12-20T00:56:05.621Z,13.10
2022-12-20T00:56:16.616Z,12.80
2022-12-20T00:56:27.425Z,13.60
2022-12-20T00:56:38.483Z,13.40
2022-12-20T00:56:49.447Z,14.80
2022-12-20T00:57:00.259Z,15.40
2022-12-20T00:57:11.308Z,15.20
2022-12-20T00:57:22.294Z,14.30
2022-12-20T00:57:33.101Z,12.80
2022-12-20T00:57:44.153Z,13.00
2022-12-20T00:57:55.151Z,14.50
2022-12-20T00:58:05.956Z,15.00
2022-12-20T00:58:17.062Z,15.30
2022-12-20T00:58:27.988Z,13.80
2022-12-20T00:58:38.788Z,13.80
2022-12-20T00:58:49.883Z,13.20
2022-12-20T00:59:00.912Z,13.90
2022-12-20T00:59:11.659Z,13.20
2022-12-20T00:59:22.739Z,13.70
2022-12-20T00:59:33.720Z,13.50
2022-12-20T00:59:44.507Z,13.60
2022-12-20T00:59:55.582Z,13.90
2022-12-20T01:00:06.602Z,13.20
2022-12-20T01:00:17.365Z,12.70
2022-12-20T01:00:28.440Z,13.70
2022-12-20T01:00:39.497Z,13.30
2022-12-20T01:00:55.873Z,12.70
2022-12-20T01:01:02.411Z,13.90
2022-12-20T01:01:12.308Z,15.40
2022-12-20T01:01:23.160Z,14.90
2022-12-20T01:01:33.857Z,13.80
2022-12-20T01:01:44.525Z,14.80
2022-12-20T01:01:55.629Z,15.30
2022-12-20T01:02:06.440Z,15.20
2022-12-20T01:02:17.038Z,15.60
2022-12-20T01:02:28.204Z,14.90
2022-12-20T01:02:38.880Z,14.30
2022-12-20T01:02:49.516Z,14.30
2022-12-20T01:03:00.514Z,14.00
2022-12-20T01:03:11.224Z,14.00
2022-12-20T01:03:21.956Z,13.10
2022-12-20T01:03:32.875Z,12.60
2022-12-20T01:03:43.532Z,12.90
2022-12-20T01:03:54.621Z,14.10
2022-12-20T01:04:05.442Z,13.60
2022-12-20T01:04:15.982Z,12.80
2022-12-20T01:04:26.978Z,13.60
2022-12-20T01:04:37.798Z,14.70
2022-12-20T01:04:48.852Z,14.50
2022-12-20T01:04:59.837Z,12.60
2022-12-20T01:05:10.632Z,12.70
2022-12-20T01:05:21.720Z,13.90
2022-12-20T01:05:32.693Z,14.70
2022-12-20T01:05:43.498Z,13.80
2022-12-20T01:05:54.565Z,13.60
2022-12-20T01:06:05.610Z,13.90
2022-12-20T01:06:16.351Z,14.70
2022-12-20T01:06:27.442Z,13.90
2022-12-20T01:06:38.442Z,12.90
2022-12-20T01:06:49.275Z,13.00
2022-12-20T01:07:00.322Z,12.90
2022-12-20T01:07:11.307Z,13.20
2022-12-20T01:07:22.114Z,13.50
2022-12-20T01:07:33.187Z,13.40
2022-12-20T01:07:44.175Z,13.30
2022-12-20T01:07:55.042Z,12.60
2022-12-20T01:08:05.515Z,12.50
2022-12-20T01:08:16.520Z,11.90
2022-12-20T01:08:27.315Z,12.50
2022-12-20T01:08:38.405Z,13.10
2022-12-20T01:08:49.369Z,13.20
2022-12-20T01:09:00.172Z,13.70
2022-12-20T01:09:11.259Z,13.60
2022-12-20T01:09:22.243Z,13.60
2022-12-20T01:09:33.063Z,13.20
2022-12-20T01:09:43.581Z,13.40
2022-12-20T01:09:54.573Z,13.00
2022-12-20T01:10:05.366Z,12.60
2022-12-20T01:10:16.433Z,13.30
2022-12-20T01:10:27.497Z,13.80
2022-12-20T01:10:38.266Z,13.20
2022-12-20T01:10:49.356Z,13.00
2022-12-20T01:11:00.318Z,11.90
2022-12-20T01:11:11.111Z,11.70
2022-12-20T01:11:22.179Z,11.60
2022-12-20T01:11:33.185Z,12.40
2022-12-20T01:11:43.980Z,12.50
2022-12-20T01:11:54.495Z,12.30
2022-12-20T01:12:05.486Z,13.30
2022-12-20T01:12:16.274Z,13.50
2022-12-20T01:12:27.336Z,13.20
2022-12-20T01:12:38.332Z,12.90
2022-12-20T01:12:49.133Z,13.20
2022-12-20T01:13:00.193Z,13.00
2022-12-20T01:13:11.215Z,12.20
2022-12-20T01:13:21.991Z,11.20
2022-12-20T01:13:33.121Z,11.60
2022-12-20T01:13:44.154Z,12.30
2022-12-20T01:13:54.914Z,11.50
2022-12-20T01:14:06.018Z,11.50
2022-12-20T01:14:17.083Z,10.80
2022-12-20T01:14:27.809Z,11.80
2022-12-20T01:14:38.883Z,11.90
2022-12-20T01:14:49.881Z,10.70
2022-12-20T01:15:00.645Z,10.00
2022-12-20T01:15:11.733Z,10.10
2022-12-20T01:15:22.722Z,9.40
2022-12-20T01:15:33.505Z,9.40
2022-12-20T01:15:44.612Z,10.70
2022-12-20T01:15:55.662Z,11.10
2022-12-20T01:16:06.503Z,11.60
2022-12-20T01:16:17.620Z,10.70
2022-12-20T01:16:28.631Z,10.70
2022-12-20T01:16:39.512Z,11.60
2022-12-20T01:16:50.052Z,11.70
2022-12-20T01:17:01.117Z,10.40
2022-12-20T01:17:11.936Z,10.10
2022-12-20T01:17:23.008Z,10.40
2022-12-20T01:17:33.983Z,9.70
2022-12-20T01:17:44.768Z,10.10
2022-12-20T01:17:55.841Z,9.80
2022-12-20T01:18:06.847Z,10.10
2022-12-20T01:18:17.631Z,10.70
2022-12-20T01:18:28.690Z,10.70
2022-12-20T01:18:39.709Z,12.60
2022-12-20T01:18:50.500Z,12.80
2022-12-20T01:19:01.583Z,11.70
2022-12-20T01:19:12.609Z,10.40
2022-12-20T01:19:23.422Z,9.00
2022-12-20T01:19:33.912Z,8.70
2022-12-20T01:19:44.911Z,8.90
2022-12-20T01:19:55.699Z,9.60
2022-12-20T01:20:06.785Z,11.50
2022-12-20T01:20:17.789Z,10.60
2022-12-20T01:20:28.587Z,7.80
2022-12-20T01:20:39.649Z,7.40
2022-12-20T01:20:50.642Z,7.40
2022-12-20T01:21:01.439Z,8.00
2022-12-20T01:21:12.525Z,8.80
2022-12-20T01:21:23.507Z,9.30
2022-12-20T01:21:34.345Z,9.40
2022-12-20T01:21:45.088Z,9.50
2022-12-20T01:21:55.527Z,9.00
2022-12-20T01:22:06.303Z,8.70
2022-12-20T01:22:17.381Z,8.00
2022-12-20T01:22:28.430Z,7.80
2022-12-20T01:22:45.526Z,8.20
2022-12-20T01:22:51.245Z,8.80
2022-12-20T01:23:01.184Z,9.00
2022-12-20T01:23:11.951Z,8.60
2022-12-20T01:23:23.034Z,9.00
2022-12-20T01:23:34.021Z,8.50
2022-12-20T01:23:44.799Z,8.50
2022-12-20T01:23:55.903Z,8.30
2022-12-20T01:24:06.875Z,8.20
2022-12-20T01:24:17.656Z,8.40
2022-12-20T01:24:28.753Z,8.60
2022-12-20T01:24:39.753Z,8.50
2022-12-20T01:24:50.542Z,8.30
2022-12-20T01:25:01.606Z,8.20
2022-12-20T01:25:12.609Z,8.60
2022-12-20T01:25:23.393Z,8.60
2022-12-20T01:25:34.463Z,8.80
2022-12-20T01:25:45.482Z,7.50
2022-12-20T01:25:56.281Z,8.30
2022-12-20T01:26:07.358Z,8.30
2022-12-20T01:26:18.352Z,8.20
2022-12-20T01:26:29.195Z,7.90
2022-12-20T01:26:39.692Z,7.80
2022-12-20T01:26:50.669Z,8.40
2022-12-20T01:27:01.492Z,8.20
2022-12-20T01:27:12.631Z,8.30
2022-12-20T01:27:23.570Z,8.40
2022-12-20T01:27:34.428Z,7.90
2022-12-20T01:27:44.928Z,7.70
2022-12-20T01:27:55.933Z,8.40
2022-12-20T01:28:06.731Z,8.30
2022-12-20T01:28:17.858Z,8.00
2022-12-20T01:28:28.829Z,6.90
2022-12-20T01:28:39.615Z,7.20
2022-12-20T01:28:50.677Z,7.80
2022-12-20T01:29:01.729Z,6.90
2022-12-20T01:29:12.476Z,7.20
2022-12-20T01:29:23.578Z,6.40
2022-12-20T01:29:34.606Z,6.60
2022-12-20T01:29:45.421Z,7.20
2022-12-20T01:29:55.952Z,7.60
2022-12-20T01:30:06.935Z,8.20
2022-12-20T01:30:17.724Z,8.00
2022-12-20T01:30:28.798Z,7.70
2022-12-20T01:30:39.795Z,7.70
2022-12-20T01:30:50.574Z,8.10
2022-12-20T01:31:01.648Z,9.20
2022-12-20T01:31:12.695Z,8.90
2022-12-20T01:31:23.537Z,8.90
2022-12-20T01:31:34.170Z,8.00
2022-12-20T01:31:45.281Z,7.90
2022-12-20T01:31:56.195Z,7.60
2022-12-20T01:32:06.833Z,8.20
2022-12-20T01:32:17.409Z,7.40
2022-12-20T01:32:28.213Z,7.40
2022-12-20T01:32:39.341Z,7.60
2022-12-20T01:32:50.325Z,7.90
2022-12-20T01:33:01.116Z,8.50
2022-12-20T01:33:12.185Z,8.90
2022-12-20T01:33:23.199Z,8.60
2022-12-20T01:33:33.962Z,8.30
2022-12-20T01:33:45.033Z,7.50
2022-12-20T01:33:56.046Z,7.30
2022-12-20T01:34:06.821Z,7.50
2022-12-20T01:34:17.908Z,7.00
2022-12-20T01:34:28.882Z,7.50
2022-12-20T01:34:39.686Z,7.70
2022-12-20T01:34:50.286Z,8.50
2022-12-20T01:35:01.249Z,8.00
2022-12-20T01:35:12.058Z,7.50
2022-12-20T01:35:23.150Z,7.10
2022-12-20T01:35:34.117Z,7.40
2022-12-20T01:35:44.916Z,7.40
2022-12-20T01:35:55.988Z,7.60
2022-12-20T01:36:06.956Z,7.20
2022-12-20T01:36:17.795Z,7.40
2022-12-20T01:36:28.329Z,7.60
2022-12-20T01:36:39.326Z,7.50
2022-12-20T01:36:50.089Z,7.50
2022-12-20T01:37:01.159Z,8.00
2022-12-20T01:37:12.171Z,7.60
2022-12-20T01:37:22.951Z,7.00
2022-12-20T01:37:34.028Z,7.00
2022-12-20T01:37:45.002Z,6.90
2022-12-20T01:37:55.820Z,6.20
2022-12-20T01:38:06.351Z,6.10
2022-12-20T01:38:17.332Z,6.50
2022-12-20T01:38:28.139Z,6.70
2022-12-20T01:38:39.213Z,6.50
2022-12-20T01:38:50.206Z,6.90
2022-12-20T01:39:00.993Z,7.20
2022-12-20T01:39:12.069Z,7.60
2022-12-20T01:39:23.081Z,7.70
2022-12-20T01:39:33.849Z,7.90
2022-12-20T01:39:44.955Z,8.70
2022-12-20T01:39:55.931Z,8.20
2022-12-20T01:40:06.730Z,8.20
2022-12-20T01:40:17.796Z,8.10
2022-12-20T01:40:28.818Z,7.90
2022-12-20T01:40:39.605Z,7.90
2022-12-20T01:40:50.689Z,8.80
2022-12-20T01:41:01.675Z,10.00
2022-12-20T01:41:12.472Z,9.80
2022-12-20T01:41:23.539Z,8.80
2022-12-20T01:41:34.560Z,8.20
2022-12-20T01:41:45.363Z,7.90
2022-12-20T01:41:56.414Z,7.70
2022-12-20T01:42:07.403Z,7.60
2022-12-20T01:42:18.188Z,7.20
2022-12-20T01:42:29.265Z,6.80
2022-12-20T01:42:40.300Z,7.30
2022-12-20T01:42:51.084Z,7.00
2022-12-20T01:43:02.146Z,7.30
2022-12-20T01:43:13.139Z,7.50
2022-12-20T01:43:23.931Z,8.00
2022-12-20T01:43:34.997Z,8.00
2022-12-20T01:43:45.998Z,8.40
2022-12-20T01:43:56.776Z,8.50
2022-12-20T01:44:07.305Z,7.60
2022-12-20T01:44:18.302Z,7.60
2022-12-20T01:44:29.094Z,7.10
2022-12-20T01:44:40.179Z,6.90
2022-12-20T01:44:51.201Z,6.40
2022-12-20T01:45:02.014Z,7.20
2022-12-20T01:45:13.076Z,7.00
2022-12-20T01:45:24.057Z,6.80
2022-12-20T01:45:34.888Z,6.20
2022-12-20T01:45:45.962Z,6.20
2022-12-20T01:45:56.953Z,7.00
2022-12-20T01:46:07.799Z,6.80
2022-12-20T01:46:18.421Z,7.40
2022-12-20T01:46:29.488Z,6.10
2022-12-20T01:46:40.289Z,5.90
2022-12-20T01:46:51.359Z,5.60
2022-12-20T01:47:02.353Z,5.60
2022-12-20T01:47:13.193Z,6.10
2022-12-20T01:47:23.679Z,6.70
2022-12-20T01:47:34.687Z,6.20
2022-12-20T01:47:45.471Z,6.40
2022-12-20T01:47:56.536Z,5.80
2022-12-20T01:48:07.534Z,7.20
2022-12-20T01:48:18.347Z,7.10
2022-12-20T01:48:28.882Z,7.50
2022-12-20T01:48:39.864Z,7.10
2022-12-20T01:48:50.674Z,7.00
2022-12-20T01:49:01.736Z,6.40
2022-12-20T01:49:12.745Z,6.20
2022-12-20T01:49:23.535Z,6.10
2022-12-20T01:49:34.595Z,6.10
2022-12-20T01:49:45.602Z,6.50
2022-12-20T01:49:56.439Z,7.60
2022-12-20T01:50:06.945Z,7.80
2022-12-20T01:50:17.926Z,8.30
2022-12-20T01:50:28.709Z,8.10
2022-12-20T01:50:39.775Z,9.10
2022-12-20T01:50:50.769Z,8.80
2022-12-20T01:51:01.570Z,9.00
2022-12-20T01:51:12.617Z,8.30
2022-12-20T01:51:23.651Z,7.40
2022-12-20T01:51:34.405Z,7.80
2022-12-20T01:51:45.472Z,8.60
2022-12-20T01:51:56.523Z,9.00
2022-12-20T01:52:07.310Z,8.40
2022-12-20T01:52:18.440Z,8.30
2022-12-20T01:52:29.384Z,9.00
2022-12-20T01:52:40.188Z,9.00
2022-12-20T01:52:51.249Z,9.30
2022-12-20T01:53:02.257Z,8.50
2022-12-20T01:53:13.024Z,8.50
2022-12-20T01:53:24.110Z,8.70
2022-12-20T01:53:35.093Z,8.50
2022-12-20T01:53:45.879Z,9.20
2022-12-20T01:53:56.943Z,9.30
2022-12-20T01:54:07.951Z,9.50
2022-12-20T01:54:18.763Z,8.40
2022-12-20T01:54:29.812Z,7.70
2022-12-20T01:54:40.794Z,7.20
2022-12-20T01:54:51.581Z,7.60
2022-12-20T01:55:02.675Z,8.30
2022-12-20T01:55:13.671Z,9.20
2022-12-20T01:55:24.456Z,8.40
2022-12-20T01:55:35.536Z,8.80
2022-12-20T01:55:46.521Z,8.10
2022-12-20T01:55:57.303Z,7.90
2022-12-20T01:56:08.400Z,8.00
2022-12-20T01:56:19.385Z,8.40
2022-12-20T01:56:30.173Z,8.10
2022-12-20T01:56:41.281Z,8.10
2022-12-20T01:56:52.251Z,8.00
2022-12-20T01:57:03.038Z,7.90
2022-12-20T01:57:14.110Z,7.20
2022-12-20T01:57:25.126Z,7.20
2022-12-20T01:57:35.895Z,7.50
2022-12-20T01:57:46.965Z,7.30
2022-12-20T01:57:58.002Z,6.60
2022-12-20T01:58:08.841Z,6.60
2022-12-20T01:58:19.328Z,7.30
2022-12-20T01:58:30.308Z,7.30
2022-12-20T01:58:41.094Z,7.10
2022-12-20T01:58:52.161Z,8.20
2022-12-20T01:59:03.279Z,8.00
2022-12-20T01:59:14.053Z,7.00
2022-12-20T01:59:25.115Z,8.10
2022-12-20T01:59:36.100Z,9.40
2022-12-20T01:59:46.876Z,9.10
2022-12-20T01:59:57.955Z,6.80
2022-12-20T02:00:09.014Z,6.00
2022-12-20T02:00:19.782Z,6.00
2022-12-20T02:00:30.839Z,6.30
2022-12-20T02:00:41.908Z,7.10
2022-12-20T02:00:52.715Z,6.90
2022-12-20T02:01:03.311Z,6.40
2022-12-20T02:01:14.328Z,6.80
2022-12-20T02:01:25.327Z,6.50
2022-12-20T02:01:36.116Z,6.40
2022-12-20T02:01:46.705Z,6.10
2022-12-20T02:01:57.742Z,7.10
2022-12-20T02:02:08.610Z,6.80
2022-12-20T02:02:19.309Z,6.60
2022-12-20T02:02:30.387Z,5.80
2022-12-20T02:02:41.121Z,6.10
2022-12-20T02:02:51.763Z,6.00
2022-12-20T02:03:02.711Z,5.90
2022-12-20T02:03:13.496Z,5.50
2022-12-20T02:03:24.116Z,5.30
2022-12-20T02:03:34.989Z,5.60
2022-12-20T02:03:45.600Z,6.30
2022-12-20T02:03:56.565Z,6.60
2022-12-20T02:04:07.350Z,6.90
2022-12-20T02:04:18.407Z,6.70
2022-12-20T02:04:29.400Z,7.00
2022-12-20T02:04:40.177Z,7.10
2022-12-20T02:04:51.258Z,6.50
2022-12-20T02:05:02.239Z,6.20
2022-12-20T02:05:13.104Z,6.50
2022-12-20T02:05:23.660Z,7.20
2022-12-20T02:05:34.607Z,7.60
2022-12-20T02:05:45.415Z,8.40
2022-12-20T02:05:56.487Z,8.20
2022-12-20T02:06:07.462Z,7.80
2022-12-20T02:06:18.265Z,7.30
2022-12-20T02:06:29.370Z,7.30
2022-12-20T02:06:40.317Z,7.30
2022-12-20T02:06:51.122Z,7.40
2022-12-20T02:07:02.189Z,8.60
2022-12-20T02:07:13.167Z,8.80
2022-12-20T02:07:23.970Z,8.10
2022-12-20T02:07:35.032Z,6.80
2022-12-20T02:07:46.055Z,5.80
2022-12-20T02:07:56.839Z,5.80
2022-12-20T02:08:07.886Z,6.90
2022-12-20T02:08:18.904Z,6.60
2022-12-20T02:08:29.722Z,6.50
2022-12-20T02:08:40.767Z,5.30
2022-12-20T02:08:51.778Z,5.10
2022-12-20T02:09:02.622Z,5.00
2022-12-20T02:09:13.133Z,5.70
2022-12-20T02:09:24.133Z,5.90
2022-12-20T02:09:34.933Z,6.20
2022-12-20T02:09:46.032Z,6.30
2022-12-20T02:09:57.029Z,5.70
2022-12-20T02:10:07.828Z,5.60
2022-12-20T02:10:18.945Z,5.90
2022-12-20T02:10:29.929Z,7.00
2022-12-20T02:10:40.727Z,7.00
2022-12-20T02:10:51.796Z,6.40
2022-12-20T02:11:02.799Z,5.10
2022-12-20T02:11:13.587Z,5.40
2022-12-20T02:11:24.704Z,6.00
2022-12-20T02:11:35.687Z,6.60
2022-12-20T02:11:46.497Z,6.40
2022-12-20T02:11:57.574Z,7.30
2022-12-20T02:12:08.570Z,6.50
2022-12-20T02:12:19.355Z,7.00
2022-12-20T02:12:30.423Z,5.60
2022-12-20T02:12:41.451Z,5.30
2022-12-20T02:12:52.199Z,5.20
2022-12-20T02:13:03.285Z,4.80
2022-12-20T02:13:14.271Z,4.90
2022-12-20T02:13:25.064Z,5.00
2022-12-20T02:13:36.140Z,6.10
2022-12-20T02:13:47.150Z,6.30
2022-12-20T02:13:57.935Z,6.00
2022-12-20T02:14:08.998Z,4.80
2022-12-20T02:14:20.035Z,4.30
2022-12-20T02:14:30.782Z,4.50
2022-12-20T02:14:41.855Z,5.00
2022-12-20T02:14:52.872Z,5.70
2022-12-20T02:15:03.681Z,6.20
2022-12-20T02:15:14.715Z,7.00
2022-12-20T02:15:25.727Z,6.80
2022-12-20T02:15:36.514Z,6.30
2022-12-20T02:15:47.588Z,5.70
2022-12-20T02:15:58.616Z,6.00
2022-12-20T02:16:09.417Z,5.70
2022-12-20T02:16:20.490Z,6.20
2022-12-20T02:16:31.510Z,6.50
2022-12-20T02:16:42.428Z,6.50
2022-12-20T02:16:53.009Z,5.50
2022-12-20T02:17:04.018Z,5.50
2022-12-20T02:17:14.780Z,5.20
2022-12-20T02:17:25.859Z,4.70
2022-12-20T02:17:36.927Z,4.20
2022-12-20T02:17:47.692Z,4.70
2022-12-20T02:17:58.784Z,5.20
2022-12-20T02:18:09.766Z,4.70
2022-12-20T02:18:20.569Z,4.60
2022-12-20T02:18:31.629Z,4.50
2022-12-20T02:18:42.633Z,4.80
2022-12-20T02:18:53.422Z,5.20
2022-12-20T02:19:04.527Z,5.70
2022-12-20T02:19:15.481Z,5.90
2022-12-20T02:19:26.352Z,5.90
2022-12-20T02:19:36.857Z,5.00
2022-12-20T02:19:47.833Z,5.50
2022-12-20T02:19:58.660Z,5.90
2022-12-20T02:20:09.730Z,6.50
2022-12-20T02:20:20.783Z,5.50
2022-12-20T02:20:31.558Z,5.40
2022-12-20T02:20:42.099Z,4.80
2022-12-20T02:20:53.087Z,4.60
2022-12-20T02:21:03.870Z,4.40
2022-12-20T02:21:14.955Z,4.90
2022-12-20T02:21:25.963Z,5.30
2022-12-20T02:21:36.741Z,5.00
2022-12-20T02:21:47.811Z,5.30
2022-12-20T02:21:58.812Z,5.40
2022-12-20T02:22:09.599Z,5.70
2022-12-20T02:22:20.679Z,5.70
2022-12-20T02:22:31.665Z,5.10